createdAt,value
2019-05-09T00:01:23.522Z,20.37
2019-05-09T00:04:03.354Z,18.82
2019-05-09T00:06:33.978Z,13.45
2019-05-09T00:09:06.151Z,15.20
2019-05-09T00:11:37.014Z,16.23
2019-05-09T00:14:07.526Z,15.10
2019-05-09T00:16:37.976Z,18.42
2019-05-09T00:19:08.429Z,14.90
2019-05-09T00:21:43.764Z,15.28
2019-05-09T00:24:14.128Z,18.77
2019-05-09T00:26:44.447Z,15.15
2019-05-09T00:29:16.296Z,14.80
2019-05-09T00:31:48.352Z,15.15
2019-05-09T00:34:33.805Z,13.70
2019-05-09T00:37:04.196Z,15.48
2019-05-09T00:39:34.564Z,15.18
2019-05-09T00:42:05.413Z,16.55
2019-05-09T00:44:37.983Z,15.03
2019-05-09T00:47:13.490Z,15.30
2019-05-09T00:49:44.118Z,15.35
2019-05-09T00:52:14.370Z,14.25
2019-05-09T00:54:44.669Z,16.70
2019-05-09T00:57:16.598Z,15.53
2019-05-09T00:59:49.496Z,14.40
2019-05-09T01:02:19.885Z,14.85
2019-05-09T01:04:50.145Z,19.45
2019-05-09T01:07:20.421Z,18.30
2019-05-09T01:09:50.739Z,13.90
2019-05-09T01:12:20.963Z,14.35
2019-05-09T01:14:53.877Z,16.48
2019-05-09T01:17:27.980Z,25.43
2019-05-09T01:19:59.234Z,13.22
2019-05-09T01:22:29.508Z,16.32
2019-05-09T01:24:59.808Z,14.45
2019-05-09T01:27:30.078Z,18.42
2019-05-09T01:30:00.378Z,15.68
2019-05-09T01:32:48.862Z,19.77
2019-05-09T01:35:19.160Z,17.90
2019-05-09T01:37:49.421Z,16.82
2019-05-09T01:40:19.712Z,14.73
2019-05-09T01:42:49.907Z,15.18
2019-05-09T01:45:20.141Z,17.00
2019-05-09T01:47:50.508Z,14.53
2019-05-09T01:50:20.813Z,13.22
2019-05-09T01:52:53.329Z,20.88
2019-05-09T01:55:25.238Z,15.13
2019-05-09T01:57:55.516Z,16.67
2019-05-09T02:00:25.856Z,20.68
2019-05-09T02:02:56.125Z,16.25
2019-05-09T02:05:26.455Z,14.25
2019-05-09T02:07:57.414Z,15.78
2019-05-09T02:10:27.860Z,14.25
2019-05-09T02:12:58.271Z,17.45
2019-05-09T02:15:48.148Z,13.68
2019-05-09T02:18:36.235Z,18.57
2019-05-09T02:21:06.605Z,16.42
2019-05-09T02:23:36.872Z,16.52
2019-05-09T02:26:07.139Z,17.42
2019-05-09T02:28:37.589Z,16.23
2019-05-09T02:31:07.946Z,17.90
2019-05-09T02:33:38.150Z,18.57
2019-05-09T02:36:09.808Z,18.12
2019-05-09T02:38:40.234Z,16.45
2019-05-09T02:41:10.473Z,17.00
2019-05-09T02:43:40.745Z,19.10
2019-05-09T02:46:21.665Z,18.80
2019-05-09T02:48:51.940Z,19.82
2019-05-09T02:51:22.212Z,20.48
2019-05-09T02:53:52.485Z,18.15
2019-05-09T02:56:22.756Z,19.50
2019-05-09T02:59:03.522Z,18.98
2019-05-09T03:01:39.137Z,17.05
2019-05-09T03:04:09.615Z,19.30
2019-05-09T03:06:40.842Z,21.65
2019-05-09T03:09:11.284Z,18.37
2019-05-09T03:11:41.637Z,19.05
2019-05-09T03:14:11.916Z,22.48
2019-05-09T03:16:42.235Z,19.80
2019-05-09T03:19:12.590Z,19.80
2019-05-09T03:21:44.466Z,19.62
2019-05-09T03:24:18.255Z,27.77
2019-05-09T03:26:49.456Z,19.60
2019-05-09T03:29:39.438Z,19.70
2019-05-09T03:32:09.403Z,22.02
2019-05-09T03:34:39.973Z,21.57
2019-05-09T03:37:10.319Z,23.27
2019-05-09T03:39:40.650Z,21.93
2019-05-09T03:42:11.082Z,18.50
2019-05-09T03:44:41.392Z,23.98
2019-05-09T03:47:17.379Z,26.15
2019-05-09T03:49:49.471Z,21.05
2019-05-09T03:52:20.101Z,25.45
2019-05-09T03:54:50.295Z,20.50
2019-05-09T03:57:22.209Z,20.77
2019-05-09T03:59:52.481Z,20.25
2019-05-09T04:02:22.831Z,24.72
2019-05-09T04:04:53.033Z,25.30
2019-05-09T04:07:23.397Z,20.88
2019-05-09T04:09:53.605Z,24.15
2019-05-09T04:12:23.971Z,22.10
2019-05-09T04:14:54.169Z,20.97
2019-05-09T04:17:28.070Z,20.65
2019-05-09T04:19:58.336Z,24.67
2019-05-09T04:22:28.653Z,20.77
2019-05-09T04:24:59.582Z,24.90
2019-05-09T04:27:31.393Z,23.77
2019-05-09T04:30:01.644Z,21.55
2019-05-09T04:32:32.989Z,22.35
2019-05-09T04:35:03.735Z,21.50
2019-05-09T04:37:34.088Z,24.57
2019-05-09T04:40:08.124Z,20.97
2019-05-09T04:45:10.463Z,23.30
2019-05-09T04:47:43.438Z,22.48
2019-05-09T04:50:15.376Z,22.90
2019-05-09T04:52:44.921Z,23.87
2019-05-09T04:55:18.224Z,25.12
2019-05-09T04:57:48.644Z,22.32
2019-05-09T05:00:21.508Z,23.40
2019-05-09T05:02:53.048Z,23.35
2019-05-09T05:05:23.265Z,22.42
2019-05-09T05:07:54.186Z,27.32
2019-05-09T05:10:24.471Z,24.52
2019-05-09T05:12:54.769Z,29.40
2019-05-09T05:15:27.542Z,26.57
2019-05-09T05:17:58.273Z,22.65
2019-05-09T05:20:30.508Z,24.37
2019-05-09T05:23:02.461Z,27.02
2019-05-09T05:25:32.744Z,27.30
2019-05-09T05:28:03.059Z,22.22
2019-05-09T05:30:37.118Z,27.15
2019-05-09T05:33:08.393Z,25.08
2019-05-09T05:35:40.387Z,23.15
2019-05-09T05:38:10.852Z,25.30
2019-05-09T05:40:45.721Z,22.40
2019-05-09T05:43:13.163Z,27.20
2019-05-09T05:45:45.020Z,29.65
2019-05-09T05:48:17.612Z,29.55
2019-05-09T05:50:48.726Z,31.27
2019-05-09T05:53:19.228Z,31.65
2019-05-09T05:55:52.622Z,25.92
2019-05-09T05:58:22.679Z,22.27
2019-05-09T06:00:54.047Z,27.20
2019-05-09T06:03:24.361Z,27.17
2019-05-09T06:05:54.635Z,25.57
2019-05-09T06:08:24.944Z,23.77
2019-05-09T06:10:57.477Z,26.42
2019-05-09T06:13:27.597Z,23.57
2019-05-09T06:15:58.593Z,25.02
2019-05-09T06:18:29.276Z,27.30
2019-05-09T06:21:00.514Z,30.17
2019-05-09T06:23:30.929Z,28.30
2019-05-09T06:26:01.240Z,25.80
2019-05-09T06:28:31.551Z,25.15
2019-05-09T06:31:09.449Z,26.70
2019-05-09T06:33:46.114Z,29.20
2019-05-09T06:36:12.929Z,27.50
2019-05-09T06:38:43.265Z,27.00
2019-05-09T06:41:13.760Z,28.57
2019-05-09T06:43:52.343Z,31.30
2019-05-09T06:46:30.260Z,27.87
2019-05-09T06:49:20.467Z,29.55
2019-05-09T06:51:33.357Z,32.67
2019-05-09T06:54:03.620Z,27.15
2019-05-09T06:56:33.852Z,32.88
2019-05-09T06:59:04.120Z,38.60
2019-05-09T07:01:42.580Z,31.95
2019-05-09T07:04:14.404Z,28.25
2019-05-09T07:06:52.099Z,33.85
2019-05-09T07:09:30.152Z,32.83
2019-05-09T07:12:00.817Z,35.75
2019-05-09T07:14:41.481Z,35.58
2019-05-09T07:17:09.917Z,28.67
2019-05-09T07:19:43.477Z,34.83
2019-05-09T07:22:18.391Z,33.02
2019-05-09T07:25:10.449Z,34.08
2019-05-09T07:27:39.930Z,30.25
2019-05-09T07:30:17.919Z,32.38
2019-05-09T07:32:49.245Z,37.58
2019-05-09T07:35:19.519Z,29.65
2019-05-09T07:37:49.828Z,31.68
2019-05-09T07:40:20.287Z,29.37
2019-05-09T07:42:50.616Z,30.95
2019-05-09T07:45:20.867Z,29.35
2019-05-09T07:47:51.187Z,35.05
2019-05-09T07:50:21.459Z,33.23
2019-05-09T07:52:51.772Z,29.37
2019-05-09T07:55:22.083Z,31.42
2019-05-09T07:57:55.318Z,29.32
2019-05-09T08:00:35.085Z,34.85
2019-05-09T08:03:08.343Z,31.00
2019-05-09T08:05:38.569Z,34.48
2019-05-09T08:08:12.196Z,34.27
2019-05-09T08:10:42.404Z,32.63
2019-05-09T08:13:13.177Z,37.35
2019-05-09T08:15:44.476Z,30.95
2019-05-09T08:18:14.801Z,32.03
2019-05-09T08:20:44.986Z,31.85
2019-05-09T08:23:15.566Z,32.48
2019-05-09T08:25:48.519Z,31.05
2019-05-09T08:28:20.156Z,32.85
2019-05-09T08:30:51.114Z,34.40
2019-05-09T08:33:21.441Z,40.45
2019-05-09T08:35:52.823Z,34.55
2019-05-09T08:38:23.702Z,41.73
2019-05-09T08:40:55.536Z,34.03
2019-05-09T08:43:28.311Z,34.08
2019-05-09T08:45:58.428Z,32.50
2019-05-09T08:48:28.665Z,31.55
2019-05-09T08:51:00.829Z,32.48
2019-05-09T08:53:32.105Z,32.98
2019-05-09T08:56:02.310Z,31.05
2019-05-09T08:58:32.620Z,30.70
2019-05-09T09:01:04.475Z,30.50
2019-05-09T09:03:37.599Z,30.97
2019-05-09T09:06:08.288Z,31.93
2019-05-09T09:08:39.465Z,28.45
2019-05-09T09:11:10.732Z,28.12
2019-05-09T09:13:41.091Z,30.80
2019-05-09T09:16:18.548Z,28.67
2019-05-09T09:18:43.922Z,27.30
2019-05-09T09:21:14.123Z,28.70
2019-05-09T09:23:50.264Z,28.42
2019-05-09T09:26:18.438Z,28.10
2019-05-09T09:28:48.852Z,31.87
2019-05-09T09:31:19.208Z,29.05
2019-05-09T09:33:50.516Z,29.00
2019-05-09T09:36:20.837Z,28.15
2019-05-09T09:38:51.147Z,27.27
2019-05-09T09:41:21.846Z,31.25
2019-05-09T09:43:52.177Z,30.08
2019-05-09T09:46:22.454Z,31.93
2019-05-09T09:48:52.781Z,29.25
2019-05-09T09:51:23.473Z,29.52
2019-05-09T09:53:58.338Z,35.92
2019-05-09T09:56:28.758Z,28.05
2019-05-09T09:59:19.102Z,26.93
2019-05-09T10:01:59.940Z,26.77
2019-05-09T10:04:30.285Z,26.77
2019-05-09T10:07:00.760Z,28.42
2019-05-09T10:09:31.000Z,28.77
2019-05-09T10:12:02.043Z,25.77
2019-05-09T10:14:39.738Z,23.42
2019-05-09T10:17:14.798Z,26.90
2019-05-09T10:19:48.179Z,27.30
2019-05-09T10:24:51.674Z,28.92
2019-05-09T10:27:22.159Z,27.55
2019-05-09T10:29:52.775Z,27.00
2019-05-09T10:32:23.110Z,23.12
2019-05-09T10:34:53.413Z,26.10
2019-05-09T10:37:24.463Z,26.57
2019-05-09T10:39:54.887Z,25.25
2019-05-09T10:42:29.580Z,24.67
2019-05-09T10:45:13.739Z,27.07
2019-05-09T10:47:44.000Z,31.45
2019-05-09T10:50:14.787Z,30.60
2019-05-09T10:52:45.029Z,27.25
2019-05-09T10:55:17.925Z,29.63
2019-05-09T10:57:52.074Z,26.52
2019-05-09T11:00:21.645Z,22.77
2019-05-09T11:02:51.835Z,24.63
2019-05-09T11:05:22.141Z,25.50
2019-05-09T11:07:52.395Z,28.50
2019-05-09T11:10:28.406Z,25.62
2019-05-09T11:12:54.473Z,24.40
2019-05-09T11:15:25.429Z,21.20
2019-05-09T11:17:57.529Z,22.13
2019-05-09T11:20:30.972Z,20.60
2019-05-09T11:23:01.316Z,18.95
2019-05-09T11:25:31.621Z,18.65
2019-05-09T11:28:11.091Z,16.93
2019-05-09T11:30:34.007Z,16.80
2019-05-09T11:33:04.544Z,16.15
2019-05-09T11:35:34.793Z,17.73
2019-05-09T11:38:05.056Z,17.73
2019-05-09T11:40:37.653Z,16.12
2019-05-09T11:43:07.429Z,15.48
2019-05-09T11:45:38.857Z,16.48
2019-05-09T11:48:12.272Z,14.13
2019-05-09T11:50:42.509Z,14.33
2019-05-09T11:53:12.799Z,12.50
2019-05-09T11:55:43.743Z,14.70
2019-05-09T11:58:13.960Z,11.18
2019-05-09T12:00:45.017Z,11.40
2019-05-09T12:03:15.252Z,11.75
2019-05-09T12:05:47.608Z,14.43
2019-05-09T12:08:17.828Z,12.98
2019-05-09T12:10:48.229Z,10.85
2019-05-09T12:13:18.716Z,12.20
2019-05-09T12:15:50.165Z,13.00
2019-05-09T12:18:20.836Z,12.93
2019-05-09T12:20:51.127Z,13.55
2019-05-09T12:23:21.815Z,15.85
2019-05-09T12:25:52.121Z,13.60
2019-05-09T12:28:22.403Z,18.23
2019-05-09T12:30:52.703Z,14.60
2019-05-09T12:33:22.987Z,14.98
2019-05-09T12:35:53.392Z,16.15
2019-05-09T12:38:23.597Z,13.98
2019-05-09T12:40:53.976Z,17.37
2019-05-09T12:43:24.257Z,15.00
2019-05-09T12:45:54.836Z,13.38
2019-05-09T12:48:27.673Z,15.85
2019-05-09T12:50:58.571Z,15.90
2019-05-09T12:53:28.948Z,14.45
2019-05-09T12:56:02.680Z,17.20
2019-05-09T12:58:33.940Z,18.25
2019-05-09T13:01:07.316Z,19.77
2019-05-09T13:03:38.226Z,16.10
2019-05-09T13:06:08.966Z,13.22
2019-05-09T13:08:39.234Z,14.38
2019-05-09T13:11:09.598Z,13.65
2019-05-09T13:13:41.193Z,12.15
2019-05-09T13:16:17.723Z,13.95
2019-05-09T13:19:02.998Z,16.42
2019-05-09T13:21:33.530Z,11.40
2019-05-09T13:24:03.773Z,12.07
2019-05-09T13:26:34.072Z,12.55
2019-05-09T13:29:04.298Z,9.55
2019-05-09T13:31:34.987Z,9.53
2019-05-09T13:34:07.951Z,12.35
2019-05-09T13:36:38.566Z,11.03
2019-05-09T13:39:10.783Z,10.00
2019-05-09T13:41:42.411Z,8.65
2019-05-09T13:44:14.053Z,9.45
2019-05-09T13:46:44.511Z,8.90
2019-05-09T13:49:15.697Z,9.90
2019-05-09T13:51:55.186Z,10.15
2019-05-09T13:54:20.206Z,8.00
2019-05-09T13:56:57.240Z,8.65
2019-05-09T13:59:22.408Z,8.48
2019-05-09T14:01:52.750Z,8.78
2019-05-09T14:04:23.634Z,8.33
2019-05-09T14:06:53.847Z,10.35
2019-05-09T14:09:24.047Z,9.40
2019-05-09T14:11:54.469Z,8.70
2019-05-09T14:14:24.763Z,9.83
2019-05-09T14:16:55.025Z,10.10
2019-05-09T14:19:36.200Z,11.60
2019-05-09T14:21:58.589Z,9.93
2019-05-09T14:24:29.141Z,8.83
2019-05-09T14:26:59.327Z,8.20
2019-05-09T14:29:32.664Z,11.85
2019-05-09T14:32:05.103Z,9.33
2019-05-09T14:34:37.639Z,9.98
2019-05-09T14:37:09.576Z,8.08
2019-05-09T14:39:54.477Z,8.88
2019-05-09T14:42:10.888Z,12.37
2019-05-09T14:44:41.129Z,9.85
2019-05-09T14:47:11.810Z,10.30
2019-05-09T14:49:44.623Z,9.88
2019-05-09T14:52:14.729Z,14.07
2019-05-09T14:54:44.981Z,13.32
2019-05-09T14:57:17.535Z,12.43
2019-05-09T14:59:47.464Z,11.40
2019-05-09T15:02:18.099Z,11.75
2019-05-09T15:04:48.673Z,10.45
2019-05-09T15:07:25.425Z,13.43
2019-05-09T15:09:56.855Z,10.53
2019-05-09T15:12:28.525Z,9.95
2019-05-09T15:15:07.606Z,9.85
2019-05-09T15:17:38.155Z,11.45
2019-05-09T15:20:10.189Z,9.43
2019-05-09T15:22:41.179Z,10.93
2019-05-09T15:25:12.037Z,10.32
2019-05-09T15:27:44.220Z,11.90
2019-05-09T15:30:14.759Z,12.98
2019-05-09T15:32:46.897Z,11.97
2019-05-09T15:35:18.300Z,13.68
2019-05-09T15:37:48.730Z,10.05
2019-05-09T15:40:19.445Z,14.68
2019-05-09T15:42:50.624Z,15.68
2019-05-09T15:45:21.144Z,31.37
2019-05-09T15:47:51.436Z,21.10
2019-05-09T15:50:23.349Z,21.37
2019-05-09T15:52:53.803Z,24.87
2019-05-09T15:55:24.030Z,18.50
2019-05-09T15:57:54.238Z,17.20
2019-05-09T16:00:28.195Z,17.05
2019-05-09T16:02:59.121Z,19.35
2019-05-09T16:05:31.759Z,18.55
2019-05-09T16:08:01.480Z,15.95
2019-05-09T16:10:31.954Z,19.60
2019-05-09T16:13:02.296Z,15.95
2019-05-09T16:15:32.516Z,19.17
2019-05-09T16:18:02.719Z,19.42
2019-05-09T16:20:37.464Z,19.48
2019-05-09T16:23:08.185Z,25.43
2019-05-09T16:25:38.705Z,27.45
2019-05-09T16:28:09.560Z,21.57
2019-05-09T16:30:39.849Z,19.15
2019-05-09T16:33:10.049Z,18.95
2019-05-09T16:35:41.462Z,18.70
2019-05-09T16:38:11.795Z,28.02
2019-05-09T16:40:42.187Z,25.92
2019-05-09T16:43:12.495Z,23.18
2019-05-09T16:45:42.802Z,28.17
2019-05-09T16:48:13.896Z,31.35
2019-05-09T16:50:57.694Z,30.95
2019-05-09T16:53:18.574Z,35.07
2019-05-09T16:55:48.813Z,31.25
2019-05-09T16:58:19.091Z,35.80
2019-05-09T17:00:52.926Z,28.55
2019-05-09T17:03:23.151Z,20.73
2019-05-09T17:05:53.460Z,24.85
2019-05-09T17:08:23.748Z,25.25
2019-05-09T17:10:54.184Z,33.42
2019-05-09T17:13:24.839Z,25.77
2019-05-09T17:15:55.213Z,29.48
2019-05-09T17:18:28.109Z,29.15
2019-05-09T17:21:15.113Z,38.40
2019-05-09T17:23:35.214Z,28.85
2019-05-09T17:26:05.525Z,30.10
2019-05-09T17:28:37.644Z,25.68
2019-05-09T17:31:08.599Z,30.88
2019-05-09T17:33:39.180Z,35.25
2019-05-09T17:36:09.448Z,33.30
2019-05-09T17:38:39.747Z,34.18
2019-05-09T17:41:10.178Z,31.57
2019-05-09T17:43:40.660Z,32.70
2019-05-09T17:46:11.034Z,31.17
2019-05-09T17:48:41.316Z,30.68
2019-05-09T17:51:11.708Z,23.80
2019-05-09T17:53:42.029Z,23.75
2019-05-09T17:56:12.378Z,25.72
2019-05-09T17:58:42.668Z,30.40
2019-05-09T18:01:13.020Z,24.12
2019-05-09T18:03:44.302Z,26.62
2019-05-09T18:06:14.614Z,24.65
2019-05-09T18:08:44.868Z,27.90
2019-05-09T18:11:17.287Z,25.92
2019-05-09T18:13:48.116Z,21.30
2019-05-09T18:16:19.714Z,22.82
2019-05-09T18:18:51.389Z,24.52
2019-05-09T18:21:21.706Z,25.95
2019-05-09T18:23:51.982Z,32.95
2019-05-09T18:26:22.279Z,28.42
2019-05-09T18:28:52.507Z,30.90
2019-05-09T18:31:24.389Z,32.38
2019-05-09T18:33:58.113Z,40.43
2019-05-09T18:38:58.660Z,35.15
2019-05-09T18:41:29.056Z,36.98
2019-05-09T18:43:59.344Z,32.65
2019-05-09T18:46:29.652Z,33.30
2019-05-09T18:49:01.016Z,30.35
2019-05-09T18:51:31.326Z,30.68
2019-05-09T18:54:01.614Z,24.98
2019-05-09T18:56:31.988Z,22.82
2019-05-09T18:59:02.270Z,29.20
2019-05-09T19:01:32.584Z,23.57
2019-05-09T19:04:03.343Z,25.12
2019-05-09T19:06:33.805Z,25.15
2019-05-09T19:09:05.567Z,21.55
2019-05-09T19:11:35.948Z,21.55
2019-05-09T19:14:07.411Z,22.10
2019-05-09T19:16:42.067Z,26.10
2019-05-09T19:19:16.822Z,20.85
2019-05-09T19:21:51.269Z,21.80
2019-05-09T19:24:31.931Z,22.00
2019-05-09T19:27:02.271Z,23.30
2019-05-09T19:29:32.573Z,22.87
2019-05-09T19:32:02.941Z,26.33
2019-05-09T19:34:33.237Z,24.50
2019-05-09T19:37:03.622Z,21.93
2019-05-09T19:39:33.815Z,26.57
2019-05-09T19:42:04.146Z,24.35
2019-05-09T19:44:35.407Z,27.52
2019-05-09T19:47:05.791Z,24.00
2019-05-09T19:49:36.036Z,27.25
2019-05-09T19:52:06.313Z,29.27
2019-05-09T19:54:37.487Z,28.80
2019-05-09T19:57:07.853Z,30.30
2019-05-09T19:59:38.159Z,29.67
2019-05-09T20:02:08.399Z,30.88
2019-05-09T20:04:38.907Z,31.50
2019-05-09T20:07:09.179Z,31.35
2019-05-09T20:09:50.387Z,31.95
2019-05-09T20:12:22.205Z,36.85
2019-05-09T20:14:54.722Z,33.18
2019-05-09T20:17:25.049Z,31.90
2019-05-09T20:19:55.413Z,32.08
2019-05-09T20:22:25.649Z,36.35
2019-05-09T20:24:55.990Z,32.90
2019-05-09T20:27:26.280Z,35.48
2019-05-09T20:29:56.627Z,39.58
2019-05-09T20:32:26.879Z,35.68
2019-05-09T20:34:57.347Z,32.63
2019-05-09T20:37:27.855Z,32.17
2019-05-09T20:39:58.342Z,34.73
2019-05-09T20:42:28.876Z,34.30
2019-05-09T20:44:59.304Z,30.92
2019-05-09T20:47:29.736Z,36.08
2019-05-09T20:50:00.281Z,33.83
2019-05-09T20:52:30.741Z,33.10
2019-05-09T20:55:01.283Z,35.28
2019-05-09T20:57:32.783Z,31.77
2019-05-09T21:00:03.828Z,38.63
2019-05-09T21:02:35.491Z,34.15
2019-05-09T21:05:07.040Z,35.28
2019-05-09T21:07:37.494Z,33.38
2019-05-09T21:10:07.968Z,36.80
2019-05-09T21:12:38.427Z,32.30
2019-05-09T21:15:09.515Z,33.48
2019-05-09T21:17:39.983Z,36.50
2019-05-09T21:20:10.629Z,34.15
2019-05-09T21:22:41.117Z,40.98
2019-05-09T21:25:11.634Z,43.38
2019-05-09T21:27:42.117Z,37.80
2019-05-09T21:30:12.794Z,40.67
2019-05-09T21:32:43.260Z,36.58
2019-05-09T21:35:13.755Z,36.15
2019-05-09T21:37:44.032Z,40.85
2019-05-09T21:40:14.517Z,37.63
2019-05-09T21:42:44.785Z,38.38
2019-05-09T21:45:15.438Z,41.42
2019-05-09T21:47:45.719Z,39.88
2019-05-09T21:50:16.227Z,44.77
2019-05-09T21:52:46.527Z,45.12
2019-05-09T21:55:16.873Z,39.90
2019-05-09T21:57:47.801Z,42.08
2019-05-09T22:00:22.296Z,46.25
2019-05-09T22:02:54.075Z,42.80
2019-05-09T22:05:24.945Z,46.35
2019-05-09T22:07:55.618Z,51.92
2019-05-09T22:10:25.914Z,39.55
2019-05-09T22:12:56.205Z,44.55
2019-05-09T22:15:27.471Z,43.38
2019-05-09T22:17:57.725Z,42.78
2019-05-09T22:20:28.080Z,40.70
2019-05-09T22:22:58.362Z,39.67
2019-05-09T22:25:28.700Z,42.00
2019-05-09T22:28:00.471Z,38.15
2019-05-09T22:30:30.825Z,37.45
2019-05-09T22:33:01.097Z,35.92
2019-05-09T22:35:31.449Z,39.00
2019-05-09T22:38:01.835Z,35.00
2019-05-09T22:40:32.181Z,36.70
2019-05-09T22:43:02.458Z,35.05
2019-05-09T22:45:32.823Z,34.03
2019-05-09T22:48:04.540Z,32.90
2019-05-09T22:50:34.873Z,35.13
2019-05-09T22:53:05.144Z,38.60
2019-05-09T22:55:35.499Z,35.65
2019-05-09T22:58:05.962Z,36.03
2019-05-09T23:00:36.280Z,35.00
2019-05-09T23:03:06.558Z,39.50
2019-05-09T23:05:36.924Z,37.83
2019-05-09T23:08:07.710Z,41.37
2019-05-09T23:10:38.008Z,37.30
2019-05-09T23:13:09.281Z,40.50
2019-05-09T23:15:40.588Z,40.00
2019-05-09T23:18:10.869Z,40.05
2019-05-09T23:20:42.800Z,40.25
2019-05-09T23:23:31.180Z,35.58
2019-05-09T23:26:01.524Z,41.30
2019-05-09T23:28:32.793Z,38.20
2019-05-09T23:31:04.743Z,38.65
2019-05-09T23:33:36.575Z,40.15
2019-05-09T23:36:06.918Z,40.03
2019-05-09T23:38:38.759Z,38.00
2019-05-09T23:41:09.243Z,40.45
2019-05-09T23:43:39.507Z,40.05
2019-05-09T23:46:09.851Z,39.73
2019-05-09T23:48:40.140Z,41.80
2019-05-09T23:51:10.481Z,39.10
2019-05-09T23:53:41.040Z,43.73
2019-05-09T23:56:29.328Z,42.98
2019-05-09T23:59:17.547Z,47.70
